sensor_id;sensor_type;location;lat;lon;timestamp;P1;durP1;ratioP1;P2;durP2;ratioP2
52708;SDS011;38606;52.986;6.980;2023-07-20T00:00:51;5.15;;;2.60;;
52708;SDS011;38606;52.986;6.980;2023-07-20T00:03:18;2.70;;;2.40;;
52708;SDS011;38606;52.986;6.980;2023-07-20T00:05:50;3.42;;;2.50;;
52708;SDS011;38606;52.986;6.980;2023-07-20T00:08:16;3.25;;;2.30;;
52708;SDS011;38606;52.986;6.980;2023-07-20T00:10:43;3.45;;;2.67;;
52708;SDS011;38606;52.986;6.980;2023-07-20T00:13:09;3.08;;;2.30;;
52708;SDS011;38606;52.986;6.980;2023-07-20T00:15:36;3.25;;;2.38;;
52708;SDS011;38606;52.986;6.980;2023-07-20T00:18:03;3.58;;;2.70;;
52708;SDS011;38606;52.986;6.980;2023-07-20T00:20:31;3.00;;;2.50;;
52708;SDS011;38606;52.986;6.980;2023-07-20T00:22:57;4.60;;;3.30;;
52708;SDS011;38606;52.986;6.980;2023-07-20T00:25:26;4.43;;;2.90;;
52708;SDS011;38606;52.986;6.980;2023-07-20T00:27:52;3.33;;;2.90;;
52708;SDS011;38606;52.986;6.980;2023-07-20T00:30:18;4.05;;;3.15;;
52708;SDS011;38606;52.986;6.980;2023-07-20T00:32:44;3.83;;;3.22;;
52708;SDS011;38606;52.986;6.980;2023-07-20T00:35:10;3.28;;;2.92;;
52708;SDS011;38606;52.986;6.980;2023-07-20T00:37:36;4.35;;;3.17;;
52708;SDS011;38606;52.986;6.980;2023-07-20T00:40:02;4.60;;;3.22;;
52708;SDS011;38606;52.986;6.980;2023-07-20T00:42:32;4.90;;;3.10;;
52708;SDS011;38606;52.986;6.980;2023-07-20T00:44:58;3.35;;;3.03;;
52708;SDS011;38606;52.986;6.980;2023-07-20T00:47:24;4.03;;;3.08;;
52708;SDS011;38606;52.986;6.980;2023-07-20T00:49:50;4.10;;;3.67;;
52708;SDS011;38606;52.986;6.980;2023-07-20T00:52:17;3.30;;;3.00;;
52708;SDS011;38606;52.986;6.980;2023-07-20T00:54:45;4.43;;;3.22;;
52708;SDS011;38606;52.986;6.980;2023-07-20T00:57:12;4.38;;;3.00;;
52708;SDS011;38606;52.986;6.980;2023-07-20T00:59:39;3.70;;;3.00;;
52708;SDS011;38606;52.986;6.980;2023-07-20T01:02:05;4.28;;;3.17;;
52708;SDS011;38606;52.986;6.980;2023-07-20T01:04:31;4.43;;;3.13;;
52708;SDS011;38606;52.986;6.980;2023-07-20T01:07:02;4.03;;;3.15;;
52708;SDS011;38606;52.986;6.980;2023-07-20T01:12:16;3.72;;;3.40;;
52708;SDS011;38606;52.986;6.980;2023-07-20T01:14:52;3.22;;;2.90;;
52708;SDS011;38606;52.986;6.980;2023-07-20T01:17:19;4.93;;;3.28;;
52708;SDS011;38606;52.986;6.980;2023-07-20T01:19:45;5.47;;;3.13;;
52708;SDS011;38606;52.986;6.980;2023-07-20T01:36:06;3.92;;;3.00;;
52708;SDS011;38606;52.986;6.980;2023-07-20T01:38:32;3.90;;;3.40;;
52708;SDS011;38606;52.986;6.980;2023-07-20T01:40:58;4.75;;;3.55;;
52708;SDS011;38606;52.986;6.980;2023-07-20T01:43:24;6.70;;;3.90;;
52708;SDS011;38606;52.986;6.980;2023-07-20T01:45:50;4.82;;;2.92;;
52708;SDS011;38606;52.986;6.980;2023-07-20T01:48:16;4.60;;;2.92;;
52708;SDS011;38606;52.986;6.980;2023-07-20T01:50:41;3.72;;;2.70;;
52708;SDS011;38606;52.986;6.980;2023-07-20T01:53:08;2.40;;;2.20;;
52708;SDS011;38606;52.986;6.980;2023-07-20T01:55:33;2.40;;;2.10;;
52708;SDS011;38606;52.986;6.980;2023-07-20T01:57:59;2.15;;;1.90;;
52708;SDS011;38606;52.986;6.980;2023-07-20T02:00:26;4.05;;;2.13;;
52708;SDS011;38606;52.986;6.980;2023-07-20T02:02:51;3.20;;;2.00;;
52708;SDS011;38606;52.986;6.980;2023-07-20T02:05:17;2.55;;;1.77;;
52708;SDS011;38606;52.986;6.980;2023-07-20T02:07:43;3.25;;;2.10;;
52708;SDS011;38606;52.986;6.980;2023-07-20T02:10:09;2.17;;;1.80;;
52708;SDS011;38606;52.986;6.980;2023-07-20T02:12:35;3.72;;;1.95;;
52708;SDS011;38606;52.986;6.980;2023-07-20T02:15:02;3.08;;;1.85;;
52708;SDS011;38606;52.986;6.980;2023-07-20T02:17:28;2.42;;;2.22;;
52708;SDS011;38606;52.986;6.980;2023-07-20T02:19:54;2.08;;;1.75;;
52708;SDS011;38606;52.986;6.980;2023-07-20T02:22:21;2.47;;;2.05;;
52708;SDS011;38606;52.986;6.980;2023-07-20T02:24:47;3.38;;;2.40;;
52708;SDS011;38606;52.986;6.980;2023-07-20T02:27:13;3.28;;;2.10;;
52708;SDS011;38606;52.986;6.980;2023-07-20T02:29:40;4.45;;;2.20;;
52708;SDS011;38606;52.986;6.980;2023-07-20T02:32:06;2.65;;;1.92;;
52708;SDS011;38606;52.986;6.980;2023-07-20T02:34:33;2.92;;;1.85;;
52708;SDS011;38606;52.986;6.980;2023-07-20T02:36:59;2.97;;;2.10;;
52708;SDS011;38606;52.986;6.980;2023-07-20T02:39:27;2.60;;;2.03;;
52708;SDS011;38606;52.986;6.980;2023-07-20T02:41:53;2.70;;;2.42;;
52708;SDS011;38606;52.986;6.980;2023-07-20T02:44:19;3.30;;;2.17;;
52708;SDS011;38606;52.986;6.980;2023-07-20T02:46:45;3.88;;;2.75;;
52708;SDS011;38606;52.986;6.980;2023-07-20T02:49:10;3.28;;;2.42;;
52708;SDS011;38606;52.986;6.980;2023-07-20T02:51:36;4.15;;;2.80;;
52708;SDS011;38606;52.986;6.980;2023-07-20T02:54:02;4.03;;;2.92;;
52708;SDS011;38606;52.986;6.980;2023-07-20T02:56:28;3.35;;;2.88;;
52708;SDS011;38606;52.986;6.980;2023-07-20T02:58:54;3.28;;;2.95;;
52708;SDS011;38606;52.986;6.980;2023-07-20T03:01:20;6.13;;;2.83;;
52708;SDS011;38606;52.986;6.980;2023-07-20T03:03:46;3.00;;;2.70;;
52708;SDS011;38606;52.986;6.980;2023-07-20T03:06:15;4.82;;;3.10;;
52708;SDS011;38606;52.986;6.980;2023-07-20T03:08:42;5.65;;;3.33;;
52708;SDS011;38606;52.986;6.980;2023-07-20T03:11:15;3.75;;;3.28;;
52708;SDS011;38606;52.986;6.980;2023-07-20T03:13:42;4.50;;;3.08;;
52708;SDS011;38606;52.986;6.980;2023-07-20T03:16:08;3.60;;;3.13;;
52708;SDS011;38606;52.986;6.980;2023-07-20T03:18:39;4.25;;;3.70;;
52708;SDS011;38606;52.986;6.980;2023-07-20T03:21:08;6.20;;;3.72;;
52708;SDS011;38606;52.986;6.980;2023-07-20T03:23:36;3.83;;;3.40;;
52708;SDS011;38606;52.986;6.980;2023-07-20T03:26:02;6.47;;;3.50;;
52708;SDS011;38606;52.986;6.980;2023-07-20T03:28:28;7.35;;;4.10;;
52708;SDS011;38606;52.986;6.980;2023-07-20T03:30:56;5.97;;;3.83;;
52708;SDS011;38606;52.986;6.980;2023-07-20T03:33:26;4.32;;;3.67;;
52708;SDS011;38606;52.986;6.980;2023-07-20T03:35:54;5.47;;;3.83;;
52708;SDS011;38606;52.986;6.980;2023-07-20T03:38:21;7.22;;;4.20;;
52708;SDS011;38606;52.986;6.980;2023-07-20T03:40:54;4.53;;;3.92;;
52708;SDS011;38606;52.986;6.980;2023-07-20T03:43:22;6.55;;;3.70;;
52708;SDS011;38606;52.986;6.980;2023-07-20T03:45:48;6.15;;;4.25;;
52708;SDS011;38606;52.986;6.980;2023-07-20T03:48:19;5.32;;;3.85;;
52708;SDS011;38606;52.986;6.980;2023-07-20T03:50:47;5.40;;;3.88;;
52708;SDS011;38606;52.986;6.980;2023-07-20T03:53:13;5.90;;;3.67;;
52708;SDS011;38606;52.986;6.980;2023-07-20T03:55:49;5.75;;;3.95;;
52708;SDS011;38606;52.986;6.980;2023-07-20T03:58:17;4.22;;;3.70;;
52708;SDS011;38606;52.986;6.980;2023-07-20T04:00:47;5.53;;;3.70;;
52708;SDS011;38606;52.986;6.980;2023-07-20T04:03:15;4.07;;;3.45;;
52708;SDS011;38606;52.986;6.980;2023-07-20T04:05:41;6.32;;;3.97;;
52708;SDS011;38606;52.986;6.980;2023-07-20T04:08:08;8.65;;;4.38;;
52708;SDS011;38606;52.986;6.980;2023-07-20T04:10:35;4.82;;;4.05;;
52708;SDS011;38606;52.986;6.980;2023-07-20T04:13:01;4.88;;;4.32;;
52708;SDS011;38606;52.986;6.980;2023-07-20T04:15:27;4.20;;;3.80;;
52708;SDS011;38606;52.986;6.980;2023-07-20T04:17:52;8.93;;;4.03;;
52708;SDS011;38606;52.986;6.980;2023-07-20T04:20:18;4.10;;;3.70;;
52708;SDS011;38606;52.986;6.980;2023-07-20T04:22:44;9.10;;;3.80;;
52708;SDS011;38606;52.986;6.980;2023-07-20T04:25:10;4.05;;;3.63;;
52708;SDS011;38606;52.986;6.980;2023-07-20T04:27:36;6.30;;;4.32;;
52708;SDS011;38606;52.986;6.980;2023-07-20T04:30:01;5.75;;;4.00;;
52708;SDS011;38606;52.986;6.980;2023-07-20T04:32:28;5.30;;;4.10;;
52708;SDS011;38606;52.986;6.980;2023-07-20T04:34:54;5.00;;;3.80;;
52708;SDS011;38606;52.986;6.980;2023-07-20T04:37:20;6.28;;;4.20;;
52708;SDS011;38606;52.986;6.980;2023-07-20T04:39:46;5.80;;;3.63;;
52708;SDS011;38606;52.986;6.980;2023-07-20T04:42:12;4.22;;;3.60;;
52708;SDS011;38606;52.986;6.980;2023-07-20T04:44:37;5.57;;;3.40;;
52708;SDS011;38606;52.986;6.980;2023-07-20T04:47:03;4.95;;;3.65;;
52708;SDS011;38606;52.986;6.980;2023-07-20T04:49:29;6.80;;;3.50;;
52708;SDS011;38606;52.986;6.980;2023-07-20T04:51:55;4.13;;;3.72;;
52708;SDS011;38606;52.986;6.980;2023-07-20T04:54:21;5.28;;;4.10;;
52708;SDS011;38606;52.986;6.980;2023-07-20T04:56:46;4.13;;;3.42;;
52708;SDS011;38606;52.986;6.980;2023-07-20T04:59:12;5.70;;;3.55;;
52708;SDS011;38606;52.986;6.980;2023-07-20T05:01:38;4.75;;;3.30;;
52708;SDS011;38606;52.986;6.980;2023-07-20T05:04:04;6.70;;;3.13;;
52708;SDS011;38606;52.986;6.980;2023-07-20T05:06:30;4.22;;;3.05;;
52708;SDS011;38606;52.986;6.980;2023-07-20T05:08:55;4.18;;;3.38;;
52708;SDS011;38606;52.986;6.980;2023-07-20T05:11:21;4.68;;;3.50;;
52708;SDS011;38606;52.986;6.980;2023-07-20T05:13:47;4.25;;;3.00;;
52708;SDS011;38606;52.986;6.980;2023-07-20T05:16:12;4.28;;;2.75;;
52708;SDS011;38606;52.986;6.980;2023-07-20T05:18:38;4.47;;;2.90;;
52708;SDS011;38606;52.986;6.980;2023-07-20T05:21:05;2.80;;;2.50;;
52708;SDS011;38606;52.986;6.980;2023-07-20T05:23:31;5.00;;;3.00;;
52708;SDS011;38606;52.986;6.980;2023-07-20T05:25:59;5.10;;;2.50;;
52708;SDS011;38606;52.986;6.980;2023-07-20T05:28:26;5.53;;;2.55;;
52708;SDS011;38606;52.986;6.980;2023-07-20T05:30:52;3.65;;;2.50;;
52708;SDS011;38606;52.986;6.980;2023-07-20T05:33:19;4.53;;;2.90;;
52708;SDS011;38606;52.986;6.980;2023-07-20T05:35:45;3.80;;;2.35;;
52708;SDS011;38606;52.986;6.980;2023-07-20T05:38:11;3.78;;;2.35;;
52708;SDS011;38606;52.986;6.980;2023-07-20T05:40:40;3.88;;;2.33;;
52708;SDS011;38606;52.986;6.980;2023-07-20T05:43:07;2.28;;;2.08;;
52708;SDS011;38606;52.986;6.980;2023-07-20T05:45:33;3.92;;;1.95;;
52708;SDS011;38606;52.986;6.980;2023-07-20T05:47:59;3.92;;;1.70;;
52708;SDS011;38606;52.986;6.980;2023-07-20T05:50:25;4.35;;;1.90;;
52708;SDS011;38606;52.986;6.980;2023-07-20T05:52:53;4.13;;;1.83;;
52708;SDS011;38606;52.986;6.980;2023-07-20T05:55:19;3.03;;;1.80;;
52708;SDS011;38606;52.986;6.980;2023-07-20T05:57:45;5.97;;;1.92;;
52708;SDS011;38606;52.986;6.980;2023-07-20T06:00:13;2.47;;;1.40;;
52708;SDS011;38606;52.986;6.980;2023-07-20T06:02:39;2.20;;;1.55;;
52708;SDS011;38606;52.986;6.980;2023-07-20T06:05:06;1.88;;;1.30;;
52708;SDS011;38606;52.986;6.980;2023-07-20T06:07:38;5.80;;;1.77;;
52708;SDS011;38606;52.986;6.980;2023-07-20T06:10:05;3.17;;;1.40;;
52708;SDS011;38606;52.986;6.980;2023-07-20T06:12:31;2.67;;;1.45;;
52708;SDS011;38606;52.986;6.980;2023-07-20T06:15:01;4.72;;;1.60;;
52708;SDS011;38606;52.986;6.980;2023-07-20T06:17:28;3.55;;;1.60;;
52708;SDS011;38606;52.986;6.980;2023-07-20T06:19:53;4.95;;;1.77;;
52708;SDS011;38606;52.986;6.980;2023-07-20T06:22:19;1.50;;;1.40;;
52708;SDS011;38606;52.986;6.980;2023-07-20T06:24:45;4.45;;;1.38;;
52708;SDS011;38606;52.986;6.980;2023-07-20T06:27:11;5.85;;;1.70;;
52708;SDS011;38606;52.986;6.980;2023-07-20T06:29:37;2.40;;;1.40;;
52708;SDS011;38606;52.986;6.980;2023-07-20T06:32:04;3.58;;;1.30;;
52708;SDS011;38606;52.986;6.980;2023-07-20T06:34:31;3.17;;;1.40;;
52708;SDS011;38606;52.986;6.980;2023-07-20T06:37:01;1.73;;;1.10;;
52708;SDS011;38606;52.986;6.980;2023-07-20T06:39:28;2.88;;;1.13;;
52708;SDS011;38606;52.986;6.980;2023-07-20T06:41:54;3.05;;;1.38;;
52708;SDS011;38606;52.986;6.980;2023-07-20T06:44:20;4.75;;;1.00;;
52708;SDS011;38606;52.986;6.980;2023-07-20T06:46:46;3.85;;;1.30;;
52708;SDS011;38606;52.986;6.980;2023-07-20T06:49:15;3.22;;;1.00;;
52708;SDS011;38606;52.986;6.980;2023-07-20T06:51:52;2.78;;;0.82;;
52708;SDS011;38606;52.986;6.980;2023-07-20T06:54:18;2.22;;;0.80;;
52708;SDS011;38606;52.986;6.980;2023-07-20T06:56:43;5.25;;;0.98;;
52708;SDS011;38606;52.986;6.980;2023-07-20T06:59:09;3.65;;;0.82;;
52708;SDS011;38606;52.986;6.980;2023-07-20T07:01:35;2.17;;;0.70;;
52708;SDS011;38606;52.986;6.980;2023-07-20T07:04:01;3.10;;;0.70;;
52708;SDS011;38606;52.986;6.980;2023-07-20T07:06:27;6.85;;;1.45;;
52708;SDS011;38606;52.986;6.980;2023-07-20T07:08:53;2.78;;;0.70;;
52708;SDS011;38606;52.986;6.980;2023-07-20T07:11:18;2.65;;;0.80;;
52708;SDS011;38606;52.986;6.980;2023-07-20T07:13:45;3.80;;;1.00;;
52708;SDS011;38606;52.986;6.980;2023-07-20T07:16:12;3.60;;;1.00;;
52708;SDS011;38606;52.986;6.980;2023-07-20T07:18:39;1.60;;;0.80;;
52708;SDS011;38606;52.986;6.980;2023-07-20T07:21:05;5.88;;;1.00;;
52708;SDS011;38606;52.986;6.980;2023-07-20T07:23:31;3.58;;;0.80;;
52708;SDS011;38606;52.986;6.980;2023-07-20T07:25:56;3.40;;;0.70;;
52708;SDS011;38606;52.986;6.980;2023-07-20T07:28:22;4.05;;;0.93;;
52708;SDS011;38606;52.986;6.980;2023-07-20T07:30:48;1.83;;;0.70;;
52708;SDS011;38606;52.986;6.980;2023-07-20T07:33:14;5.85;;;0.95;;
52708;SDS011;38606;52.986;6.980;2023-07-20T07:35:40;2.58;;;1.00;;
52708;SDS011;38606;52.986;6.980;2023-07-20T07:38:06;5.45;;;0.82;;
52708;SDS011;38606;52.986;6.980;2023-07-20T07:40:32;4.22;;;1.00;;
52708;SDS011;38606;52.986;6.980;2023-07-20T07:42:58;3.78;;;0.85;;
52708;SDS011;38606;52.986;6.980;2023-07-20T07:45:24;1.60;;;0.90;;
52708;SDS011;38606;52.986;6.980;2023-07-20T07:47:49;2.97;;;0.90;;
52708;SDS011;38606;52.986;6.980;2023-07-20T07:50:15;3.13;;;0.88;;
52708;SDS011;38606;52.986;6.980;2023-07-20T07:52:41;4.93;;;1.13;;
52708;SDS011;38606;52.986;6.980;2023-07-20T07:55:06;1.60;;;0.70;;
52708;SDS011;38606;52.986;6.980;2023-07-20T07:57:32;4.45;;;1.25;;
52708;SDS011;38606;52.986;6.980;2023-07-20T07:59:58;1.05;;;0.70;;
52708;SDS011;38606;52.986;6.980;2023-07-20T08:02:24;3.20;;;1.30;;
52708;SDS011;38606;52.986;6.980;2023-07-20T08:04:49;4.97;;;1.23;;
52708;SDS011;38606;52.986;6.980;2023-07-20T08:07:17;2.15;;;0.90;;
52708;SDS011;38606;52.986;6.980;2023-07-20T08:09:43;1.17;;;0.75;;
52708;SDS011;38606;52.986;6.980;2023-07-20T08:12:08;3.03;;;1.00;;
52708;SDS011;38606;52.986;6.980;2023-07-20T08:14:34;2.58;;;1.00;;
52708;SDS011;38606;52.986;6.980;2023-07-20T08:17:00;3.72;;;1.00;;
52708;SDS011;38606;52.986;6.980;2023-07-20T08:19:25;2.65;;;1.30;;
52708;SDS011;38606;52.986;6.980;2023-07-20T08:21:51;2.30;;;0.82;;
52708;SDS011;38606;52.986;6.980;2023-07-20T08:24:17;2.63;;;1.00;;
52708;SDS011;38606;52.986;6.980;2023-07-20T08:26:43;4.07;;;1.23;;
52708;SDS011;38606;52.986;6.980;2023-07-20T08:29:08;2.00;;;0.98;;
52708;SDS011;38606;52.986;6.980;2023-07-20T08:31:34;4.45;;;1.10;;
52708;SDS011;38606;52.986;6.980;2023-07-20T08:34:00;2.30;;;1.00;;
52708;SDS011;38606;52.986;6.980;2023-07-20T08:36:25;3.40;;;0.95;;
52708;SDS011;38606;52.986;6.980;2023-07-20T08:38:52;2.53;;;1.05;;
52708;SDS011;38606;52.986;6.980;2023-07-20T08:41:18;1.17;;;0.80;;
52708;SDS011;38606;52.986;6.980;2023-07-20T08:43:44;1.83;;;1.05;;
52708;SDS011;38606;52.986;6.980;2023-07-20T08:46:12;2.42;;;1.23;;
52708;SDS011;38606;52.986;6.980;2023-07-20T08:48:40;3.83;;;0.90;;
52708;SDS011;38606;52.986;6.980;2023-07-20T08:51:07;2.63;;;1.10;;
52708;SDS011;38606;52.986;6.980;2023-07-20T08:53:32;2.67;;;0.90;;
52708;SDS011;38606;52.986;6.980;2023-07-20T08:55:59;2.88;;;1.20;;
52708;SDS011;38606;52.986;6.980;2023-07-20T08:58:26;2.95;;;1.17;;
52708;SDS011;38606;52.986;6.980;2023-07-20T09:00:54;2.97;;;1.17;;
52708;SDS011;38606;52.986;6.980;2023-07-20T09:03:20;4.63;;;1.20;;
52708;SDS011;38606;52.986;6.980;2023-07-20T09:05:46;2.92;;;1.10;;
52708;SDS011;38606;52.986;6.980;2023-07-20T09:08:12;1.95;;;1.20;;
52708;SDS011;38606;52.986;6.980;2023-07-20T09:10:38;2.80;;;0.98;;
52708;SDS011;38606;52.986;6.980;2023-07-20T09:13:03;3.42;;;0.98;;
52708;SDS011;38606;52.986;6.980;2023-07-20T09:15:30;3.30;;;1.13;;
52708;SDS011;38606;52.986;6.980;2023-07-20T09:17:55;2.17;;;0.95;;
52708;SDS011;38606;52.986;6.980;2023-07-20T09:20:21;2.78;;;1.00;;
52708;SDS011;38606;52.986;6.980;2023-07-20T09:22:47;2.20;;;1.13;;
52708;SDS011;38606;52.986;6.980;2023-07-20T09:25:18;4.45;;;1.77;;
52708;SDS011;38606;52.986;6.980;2023-07-20T09:27:45;5.75;;;1.65;;
52708;SDS011;38606;52.986;6.980;2023-07-20T09:30:13;3.75;;;1.20;;
52708;SDS011;38606;52.986;6.980;2023-07-20T09:32:47;4.75;;;1.38;;
52708;SDS011;38606;52.986;6.980;2023-07-20T09:35:14;4.72;;;1.38;;
52708;SDS011;38606;52.986;6.980;2023-07-20T09:37:51;3.85;;;1.20;;
52708;SDS011;38606;52.986;6.980;2023-07-20T09:40:20;3.88;;;1.45;;
52708;SDS011;38606;52.986;6.980;2023-07-20T09:42:46;3.30;;;1.27;;
52708;SDS011;38606;52.986;6.980;2023-07-20T09:45:13;2.92;;;1.20;;
52708;SDS011;38606;52.986;6.980;2023-07-20T09:47:39;2.70;;;1.40;;
52708;SDS011;38606;52.986;6.980;2023-07-20T09:50:06;4.25;;;1.40;;
52708;SDS011;38606;52.986;6.980;2023-07-20T09:52:42;6.03;;;1.30;;
52708;SDS011;38606;52.986;6.980;2023-07-20T09:55:12;4.22;;;1.40;;
52708;SDS011;38606;52.986;6.980;2023-07-20T09:57:38;2.35;;;1.30;;
52708;SDS011;38606;52.986;6.980;2023-07-20T10:00:05;2.72;;;1.52;;
52708;SDS011;38606;52.986;6.980;2023-07-20T10:05:06;5.72;;;1.90;;
52708;SDS011;38606;52.986;6.980;2023-07-20T10:07:35;4.72;;;1.73;;
52708;SDS011;38606;52.986;6.980;2023-07-20T10:10:05;3.17;;;1.40;;
52708;SDS011;38606;52.986;6.980;2023-07-20T10:12:36;2.88;;;1.60;;
52708;SDS011;38606;52.986;6.980;2023-07-20T10:17:30;3.35;;;1.05;;
52708;SDS011;38606;52.986;6.980;2023-07-20T10:19:56;2.47;;;1.25;;
52708;SDS011;38606;52.986;6.980;2023-07-20T10:22:26;1.73;;;1.20;;
52708;SDS011;38606;52.986;6.980;2023-07-20T10:24:52;4.07;;;1.58;;
52708;SDS011;38606;52.986;6.980;2023-07-20T10:27:22;3.42;;;1.20;;
52708;SDS011;38606;52.986;6.980;2023-07-20T10:29:48;6.40;;;2.08;;
52708;SDS011;38606;52.986;6.980;2023-07-20T10:32:16;1.33;;;1.15;;
52708;SDS011;38606;52.986;6.980;2023-07-20T10:34:49;3.15;;;1.13;;
52708;SDS011;38606;52.986;6.980;2023-07-20T10:40:30;3.25;;;1.30;;
52708;SDS011;38606;52.986;6.980;2023-07-20T10:43:06;3.47;;;1.30;;
52708;SDS011;38606;52.986;6.980;2023-07-20T10:45:40;4.53;;;1.30;;
52708;SDS011;38606;52.986;6.980;2023-07-20T10:48:12;2.03;;;1.00;;
52708;SDS011;38606;52.986;6.980;2023-07-20T10:51:08;3.67;;;1.67;;
52708;SDS011;38606;52.986;6.980;2023-07-20T10:53:41;3.83;;;1.35;;
52708;SDS011;38606;52.986;6.980;2023-07-20T10:56:15;4.25;;;1.10;;
52708;SDS011;38606;52.986;6.980;2023-07-20T10:58:45;7.47;;;1.35;;
52708;SDS011;38606;52.986;6.980;2023-07-20T11:01:15;2.80;;;1.00;;
52708;SDS011;38606;52.986;6.980;2023-07-20T11:03:42;4.03;;;1.17;;
52708;SDS011;38606;52.986;6.980;2023-07-20T11:06:41;2.67;;;1.05;;
52708;SDS011;38606;52.986;6.980;2023-07-20T11:11:42;2.80;;;1.02;;
52708;SDS011;38606;52.986;6.980;2023-07-20T11:16:51;3.13;;;1.15;;
52708;SDS011;38606;52.986;6.980;2023-07-20T11:19:21;2.80;;;1.00;;
52708;SDS011;38606;52.986;6.980;2023-07-20T11:24:17;3.42;;;1.00;;
52708;SDS011;38606;52.986;6.980;2023-07-20T11:26:45;4.72;;;0.88;;
52708;SDS011;38606;52.986;6.980;2023-07-20T11:29:15;3.83;;;1.42;;
52708;SDS011;38606;52.986;6.980;2023-07-20T11:31:43;2.67;;;0.93;;
52708;SDS011;38606;52.986;6.980;2023-07-20T11:34:13;2.85;;;1.02;;
52708;SDS011;38606;52.986;6.980;2023-07-20T11:36:40;2.55;;;0.82;;
52708;SDS011;38606;52.986;6.980;2023-07-20T11:39:10;3.67;;;0.88;;
52708;SDS011;38606;52.986;6.980;2023-07-20T11:41:37;3.17;;;1.00;;
52708;SDS011;38606;52.986;6.980;2023-07-20T11:44:04;2.17;;;0.90;;
52708;SDS011;38606;52.986;6.980;2023-07-20T11:46:33;2.65;;;0.80;;
52708;SDS011;38606;52.986;6.980;2023-07-20T11:48:59;1.63;;;0.90;;
52708;SDS011;38606;52.986;6.980;2023-07-20T11:51:28;2.85;;;0.80;;
52708;SDS011;38606;52.986;6.980;2023-07-20T11:53:55;2.30;;;1.05;;
52708;SDS011;38606;52.986;6.980;2023-07-20T11:56:22;3.60;;;0.75;;
52708;SDS011;38606;52.986;6.980;2023-07-20T11:58:50;4.25;;;1.10;;
52708;SDS011;38606;52.986;6.980;2023-07-20T12:01:20;3.45;;;0.90;;
52708;SDS011;38606;52.986;6.980;2023-07-20T12:03:47;3.67;;;0.70;;
52708;SDS011;38606;52.986;6.980;2023-07-20T12:06:13;2.28;;;0.75;;
52708;SDS011;38606;52.986;6.980;2023-07-20T12:08:40;2.20;;;0.70;;
52708;SDS011;38606;52.986;6.980;2023-07-20T12:11:07;1.38;;;0.70;;
52708;SDS011;38606;52.986;6.980;2023-07-20T12:16:15;2.45;;;0.93;;
52708;SDS011;38606;52.986;6.980;2023-07-20T12:18:45;1.33;;;0.60;;
52708;SDS011;38606;52.986;6.980;2023-07-20T12:21:10;2.20;;;0.80;;
52708;SDS011;38606;52.986;6.980;2023-07-20T12:23:40;2.22;;;0.75;;
52708;SDS011;38606;52.986;6.980;2023-07-20T12:26:07;4.07;;;0.88;;
52708;SDS011;38606;52.986;6.980;2023-07-20T12:28:40;2.22;;;1.10;;
52708;SDS011;38606;52.986;6.980;2023-07-20T12:31:06;3.33;;;0.85;;
52708;SDS011;38606;52.986;6.980;2023-07-20T12:33:33;2.95;;;0.88;;
52708;SDS011;38606;52.986;6.980;2023-07-20T12:35:59;1.98;;;0.70;;
52708;SDS011;38606;52.986;6.980;2023-07-20T12:38:26;2.25;;;0.90;;
52708;SDS011;38606;52.986;6.980;2023-07-20T12:41:01;1.67;;;0.70;;
52708;SDS011;38606;52.986;6.980;2023-07-20T12:43:28;1.85;;;0.75;;
52708;SDS011;38606;52.986;6.980;2023-07-20T12:45:54;3.15;;;1.15;;
52708;SDS011;38606;52.986;6.980;2023-07-20T12:48:20;2.33;;;0.88;;
52708;SDS011;38606;52.986;6.980;2023-07-20T12:50:47;2.45;;;0.85;;
52708;SDS011;38606;52.986;6.980;2023-07-20T12:53:12;6.35;;;0.85;;
52708;SDS011;38606;52.986;6.980;2023-07-20T12:55:38;2.50;;;0.90;;
52708;SDS011;38606;52.986;6.980;2023-07-20T12:58:05;5.60;;;0.98;;
52708;SDS011;38606;52.986;6.980;2023-07-20T13:00:31;2.67;;;0.80;;
52708;SDS011;38606;52.986;6.980;2023-07-20T13:02:57;2.10;;;0.80;;
52708;SDS011;38606;52.986;6.980;2023-07-20T13:05:23;2.03;;;0.75;;
52708;SDS011;38606;52.986;6.980;2023-07-20T13:07:49;1.27;;;0.80;;
52708;SDS011;38606;52.986;6.980;2023-07-20T13:10:14;1.42;;;0.88;;
52708;SDS011;38606;52.986;6.980;2023-07-20T13:12:40;3.22;;;1.00;;
52708;SDS011;38606;52.986;6.980;2023-07-20T13:15:06;5.47;;;0.98;;
52708;SDS011;38606;52.986;6.980;2023-07-20T13:17:40;8.88;;;1.10;;
52708;SDS011;38606;52.986;6.980;2023-07-20T13:20:06;3.05;;;0.82;;
52708;SDS011;38606;52.986;6.980;2023-07-20T13:22:35;4.53;;;1.00;;
52708;SDS011;38606;52.986;6.980;2023-07-20T13:25:05;1.38;;;0.80;;
52708;SDS011;38606;52.986;6.980;2023-07-20T13:27:31;3.65;;;0.88;;
52708;SDS011;38606;52.986;6.980;2023-07-20T13:30:00;2.03;;;0.90;;
52708;SDS011;38606;52.986;6.980;2023-07-20T13:32:31;2.15;;;1.00;;
52708;SDS011;38606;52.986;6.980;2023-07-20T13:34:57;4.40;;;1.35;;
52708;SDS011;38606;52.986;6.980;2023-07-20T13:37:23;2.03;;;1.00;;
52708;SDS011;38606;52.986;6.980;2023-07-20T13:39:49;1.55;;;0.80;;
52708;SDS011;38606;52.986;6.980;2023-07-20T13:42:15;2.25;;;0.90;;
52708;SDS011;38606;52.986;6.980;2023-07-20T13:44:40;1.95;;;0.95;;
52708;SDS011;38606;52.986;6.980;2023-07-20T13:47:06;1.20;;;0.88;;
52708;SDS011;38606;52.986;6.980;2023-07-20T13:49:32;3.03;;;0.85;;
52708;SDS011;38606;52.986;6.980;2023-07-20T13:51:58;3.60;;;1.08;;
52708;SDS011;38606;52.986;6.980;2023-07-20T13:54:24;1.25;;;0.90;;
52708;SDS011;38606;52.986;6.980;2023-07-20T13:56:50;3.33;;;0.90;;
52708;SDS011;38606;52.986;6.980;2023-07-20T13:59:17;2.92;;;1.05;;
52708;SDS011;38606;52.986;6.980;2023-07-20T14:01:42;2.58;;;0.88;;
52708;SDS011;38606;52.986;6.980;2023-07-20T14:04:08;3.05;;;1.00;;
52708;SDS011;38606;52.986;6.980;2023-07-20T14:06:34;1.88;;;0.90;;
52708;SDS011;38606;52.986;6.980;2023-07-20T14:09:00;2.15;;;0.90;;
52708;SDS011;38606;52.986;6.980;2023-07-20T14:11:27;2.35;;;1.00;;
52708;SDS011;38606;52.986;6.980;2023-07-20T14:13:52;2.55;;;1.10;;
52708;SDS011;38606;52.986;6.980;2023-07-20T14:16:19;5.60;;;0.95;;
52708;SDS011;38606;52.986;6.980;2023-07-20T14:18:45;1.50;;;0.82;;
52708;SDS011;38606;52.986;6.980;2023-07-20T14:21:17;1.70;;;1.10;;
52708;SDS011;38606;52.986;6.980;2023-07-20T14:23:48;3.13;;;1.10;;
52708;SDS011;38606;52.986;6.980;2023-07-20T14:26:15;1.98;;;0.90;;
52708;SDS011;38606;52.986;6.980;2023-07-20T14:28:41;2.55;;;1.15;;
52708;SDS011;38606;52.986;6.980;2023-07-20T14:31:06;2.28;;;1.10;;
52708;SDS011;38606;52.986;6.980;2023-07-20T14:33:32;2.63;;;1.17;;
52708;SDS011;38606;52.986;6.980;2023-07-20T14:35:58;5.72;;;1.10;;
52708;SDS011;38606;52.986;6.980;2023-07-20T14:38:26;4.75;;;0.90;;
52708;SDS011;38606;52.986;6.980;2023-07-20T14:40:58;5.88;;;0.93;;
52708;SDS011;38606;52.986;6.980;2023-07-20T14:43:24;2.33;;;0.73;;
52708;SDS011;38606;52.986;6.980;2023-07-20T14:45:50;3.45;;;1.30;;
52708;SDS011;38606;52.986;6.980;2023-07-20T14:48:16;3.17;;;0.98;;
52708;SDS011;38606;52.986;6.980;2023-07-20T14:50:42;3.83;;;1.45;;
52708;SDS011;38606;52.986;6.980;2023-07-20T14:53:10;4.40;;;1.00;;
52708;SDS011;38606;52.986;6.980;2023-07-20T14:55:37;2.35;;;0.90;;
52708;SDS011;38606;52.986;6.980;2023-07-20T14:58:03;1.42;;;1.00;;
52708;SDS011;38606;52.986;6.980;2023-07-20T15:00:29;2.22;;;0.93;;
52708;SDS011;38606;52.986;6.980;2023-07-20T15:02:55;3.78;;;1.08;;
52708;SDS011;38606;52.986;6.980;2023-07-20T15:05:21;4.68;;;1.00;;
52708;SDS011;38606;52.986;6.980;2023-07-20T15:07:48;2.20;;;0.82;;
52708;SDS011;38606;52.986;6.980;2023-07-20T15:10:15;1.55;;;1.00;;
52708;SDS011;38606;52.986;6.980;2023-07-20T15:12:41;2.28;;;1.00;;
52708;SDS011;38606;52.986;6.980;2023-07-20T15:15:11;3.17;;;1.05;;
52708;SDS011;38606;52.986;6.980;2023-07-20T15:17:39;3.78;;;1.42;;
52708;SDS011;38606;52.986;6.980;2023-07-20T15:20:06;2.55;;;1.45;;
52708;SDS011;38606;52.986;6.980;2023-07-20T15:22:33;3.75;;;1.20;;